sensor_id;sensor_type;location;lat;lon;timestamp;pressure;altitude;pressure_sealevel;temperature;humidity
81033;BME280;70514;52.478;6.102;2023-09-19T00:01:38;100704.03;;;18.36;76.81
81033;BME280;70514;52.478;6.102;2023-09-19T00:04:09;100715.56;;;18.61;75.66
81033;BME280;70514;52.478;6.102;2023-09-19T00:06:39;100717.66;;;18.46;74.93
81033;BME280;70514;52.478;6.102;2023-09-19T00:09:08;100722.66;;;18.21;75.90
81033;BME280;70514;52.478;6.102;2023-09-19T00:11:39;100719.41;;;18.81;74.56
81033;BME280;70514;52.478;6.102;2023-09-19T00:14:10;100718.91;;;18.97;74.10
81033;BME280;70514;52.478;6.102;2023-09-19T00:16:43;100728.31;;;19.03;73.60
81033;BME280;70514;52.478;6.102;2023-09-19T00:19:12;100725.63;;;18.75;74.39
81033;BME280;70514;52.478;6.102;2023-09-19T00:21:43;100729.00;;;18.79;74.73
81033;BME280;70514;52.478;6.102;2023-09-19T00:24:12;100732.44;;;19.12;73.42
81033;BME280;70514;52.478;6.102;2023-09-19T00:26:43;100729.22;;;18.36;75.03
81033;BME280;70514;52.478;6.102;2023-09-19T00:29:12;100733.94;;;18.21;75.81
81033;BME280;70514;52.478;6.102;2023-09-19T00:31:45;100740.94;;;18.87;73.58
81033;BME280;70514;52.478;6.102;2023-09-19T00:34:14;100735.81;;;18.84;73.72
81033;BME280;70514;52.478;6.102;2023-09-19T00:36:45;100737.28;;;18.62;74.28
81033;BME280;70514;52.478;6.102;2023-09-19T00:39:14;100740.03;;;18.56;74.52
81033;BME280;70514;52.478;6.102;2023-09-19T00:41:44;100738.03;;;18.32;76.06
81033;BME280;70514;52.478;6.102;2023-09-19T00:44:14;100740.34;;;18.44;75.72
81033;BME280;70514;52.478;6.102;2023-09-19T00:46:44;100740.94;;;18.55;74.88
81033;BME280;70514;52.478;6.102;2023-09-19T00:49:16;100746.22;;;18.86;73.53
81033;BME280;70514;52.478;6.102;2023-09-19T00:51:45;100752.38;;;19.14;72.70
81033;BME280;70514;52.478;6.102;2023-09-19T00:54:16;100750.75;;;19.10;72.03
81033;BME280;70514;52.478;6.102;2023-09-19T00:56:47;100750.13;;;18.70;73.83
81033;BME280;70514;52.478;6.102;2023-09-19T00:59:17;100758.84;;;19.32;71.71
81033;BME280;70514;52.478;6.102;2023-09-19T01:01:46;100761.53;;;19.29;71.73
81033;BME280;70514;52.478;6.102;2023-09-19T01:04:22;100767.44;;;19.35;71.18
81033;BME280;70514;52.478;6.102;2023-09-19T01:06:52;100769.34;;;19.29;71.18
81033;BME280;70514;52.478;6.102;2023-09-19T01:09:22;100771.41;;;19.18;70.62
81033;BME280;70514;52.478;6.102;2023-09-19T01:11:53;100773.78;;;18.96;72.70
81033;BME280;70514;52.478;6.102;2023-09-19T01:14:52;100769.84;;;18.80;72.83
81033;BME280;70514;52.478;6.102;2023-09-19T01:17:30;100772.81;;;19.29;71.50
81033;BME280;70514;52.478;6.102;2023-09-19T01:23:05;100773.72;;;18.97;71.92
81033;BME280;70514;52.478;6.102;2023-09-19T01:28:31;100775.13;;;18.43;74.27
81033;BME280;70514;52.478;6.102;2023-09-19T01:31:09;100776.44;;;18.60;74.55
81033;BME280;70514;52.478;6.102;2023-09-19T01:34:00;100775.56;;;18.94;72.89
81033;BME280;70514;52.478;6.102;2023-09-19T01:36:32;100774.19;;;19.42;70.74
81033;BME280;70514;52.478;6.102;2023-09-19T01:39:10;100769.88;;;19.41;70.46
81033;BME280;70514;52.478;6.102;2023-09-19T01:42:04;100781.97;;;19.13;71.05
81033;BME280;70514;52.478;6.102;2023-09-19T01:44:50;100780.16;;;19.17;71.86
81033;BME280;70514;52.478;6.102;2023-09-19T01:47:38;100778.78;;;19.03;70.85
81033;BME280;70514;52.478;6.102;2023-09-19T01:50:29;100781.09;;;18.46;73.22
81033;BME280;70514;52.478;6.102;2023-09-19T01:53:23;100772.00;;;18.64;71.50
81033;BME280;70514;52.478;6.102;2023-09-19T01:55:54;100782.63;;;18.56;73.03
81033;BME280;70514;52.478;6.102;2023-09-19T01:58:41;100785.22;;;18.90;72.89
81033;BME280;70514;52.478;6.102;2023-09-19T02:01:20;100783.44;;;18.23;74.48
81033;BME280;70514;52.478;6.102;2023-09-19T02:03:52;100780.34;;;18.77;72.40
81033;BME280;70514;52.478;6.102;2023-09-19T02:06:22;100785.28;;;18.53;73.53
81033;BME280;70514;52.478;6.102;2023-09-19T02:08:51;100794.03;;;18.51;74.13
81033;BME280;70514;52.478;6.102;2023-09-19T02:11:20;100786.81;;;18.63;72.70
81033;BME280;70514;52.478;6.102;2023-09-19T02:13:50;100773.03;;;18.58;72.78
81033;BME280;70514;52.478;6.102;2023-09-19T02:16:23;100785.56;;;18.43;72.68
81033;BME280;70514;52.478;6.102;2023-09-19T02:18:53;100778.03;;;18.98;72.18
81033;BME280;70514;52.478;6.102;2023-09-19T02:21:22;100775.19;;;18.75;72.93
81033;BME280;70514;52.478;6.102;2023-09-19T02:23:52;100774.28;;;18.05;74.75
81033;BME280;70514;52.478;6.102;2023-09-19T02:26:21;100776.38;;;17.90;73.48
81033;BME280;70514;52.478;6.102;2023-09-19T02:28:52;100782.56;;;18.59;73.37
81033;BME280;70514;52.478;6.102;2023-09-19T02:31:22;100785.41;;;18.13;74.69
81033;BME280;70514;52.478;6.102;2023-09-19T02:33:51;100786.28;;;18.83;72.52
81033;BME280;70514;52.478;6.102;2023-09-19T02:36:20;100788.28;;;19.37;69.17
81033;BME280;70514;52.478;6.102;2023-09-19T02:38:49;100790.81;;;19.40;69.13
81033;BME280;70514;52.478;6.102;2023-09-19T02:41:18;100793.25;;;19.47;69.04
81033;BME280;70514;52.478;6.102;2023-09-19T02:43:47;100787.34;;;19.08;70.98
81033;BME280;70514;52.478;6.102;2023-09-19T02:46:16;100791.09;;;18.98;71.44
81033;BME280;70514;52.478;6.102;2023-09-19T02:48:46;100783.94;;;18.37;71.11
81033;BME280;70514;52.478;6.102;2023-09-19T02:51:16;100784.69;;;18.07;71.26
81033;BME280;70514;52.478;6.102;2023-09-19T02:53:45;100795.38;;;18.32;74.37
81033;BME280;70514;52.478;6.102;2023-09-19T02:56:16;100796.91;;;19.39;70.14
81033;BME280;70514;52.478;6.102;2023-09-19T02:58:45;100797.47;;;19.51;68.86
81033;BME280;70514;52.478;6.102;2023-09-19T03:01:14;100799.84;;;19.59;68.73
81033;BME280;70514;52.478;6.102;2023-09-19T03:03:44;100802.22;;;19.37;69.66
81033;BME280;70514;52.478;6.102;2023-09-19T03:06:14;100807.72;;;19.27;69.52
81033;BME280;70514;52.478;6.102;2023-09-19T03:08:43;100797.75;;;18.76;71.98
81033;BME280;70514;52.478;6.102;2023-09-19T03:11:12;100803.47;;;18.56;72.01
81033;BME280;70514;52.478;6.102;2023-09-19T03:13:43;100796.56;;;18.55;72.57
81033;BME280;70514;52.478;6.102;2023-09-19T03:16:14;100793.56;;;19.03;70.07
81033;BME280;70514;52.478;6.102;2023-09-19T03:18:44;100802.59;;;18.20;74.19
81033;BME280;70514;52.478;6.102;2023-09-19T03:21:17;100792.88;;;18.96;69.96
81033;BME280;70514;52.478;6.102;2023-09-19T03:23:47;100793.09;;;18.89;70.93
81033;BME280;70514;52.478;6.102;2023-09-19T03:26:18;100794.81;;;18.90;70.95
81033;BME280;70514;52.478;6.102;2023-09-19T03:28:48;100795.72;;;19.20;70.11
81033;BME280;70514;52.478;6.102;2023-09-19T03:31:18;100789.88;;;19.12;70.08
81033;BME280;70514;52.478;6.102;2023-09-19T03:33:47;100791.28;;;19.23;69.67
81033;BME280;70514;52.478;6.102;2023-09-19T03:36:16;100782.84;;;18.81;71.26
81033;BME280;70514;52.478;6.102;2023-09-19T03:38:45;100791.06;;;19.31;69.75
81033;BME280;70514;52.478;6.102;2023-09-19T03:41:15;100786.28;;;19.16;69.68
81033;BME280;70514;52.478;6.102;2023-09-19T03:43:46;100798.16;;;19.27;68.72
81033;BME280;70514;52.478;6.102;2023-09-19T03:46:15;100800.22;;;19.15;69.99
81033;BME280;70514;52.478;6.102;2023-09-19T03:48:44;100794.88;;;19.19;69.71
81033;BME280;70514;52.478;6.102;2023-09-19T03:51:13;100786.22;;;19.17;68.19
81033;BME280;70514;52.478;6.102;2023-09-19T03:53:43;100785.81;;;19.01;70.17
81033;BME280;70514;52.478;6.102;2023-09-19T03:56:12;100785.59;;;18.40;72.48
81033;BME280;70514;52.478;6.102;2023-09-19T03:58:41;100795.25;;;19.05;70.16
81033;BME280;70514;52.478;6.102;2023-09-19T04:01:10;100790.78;;;18.77;69.44
81033;BME280;70514;52.478;6.102;2023-09-19T04:03:39;100788.69;;;18.91;70.75
81033;BME280;70514;52.478;6.102;2023-09-19T04:06:17;100799.16;;;19.22;68.98
81033;BME280;70514;52.478;6.102;2023-09-19T04:08:46;100807.66;;;18.63;71.27
81033;BME280;70514;52.478;6.102;2023-09-19T04:11:16;100809.59;;;18.89;71.28
81033;BME280;70514;52.478;6.102;2023-09-19T04:13:45;100809.94;;;19.40;68.58
81033;BME280;70514;52.478;6.102;2023-09-19T04:16:14;100819.34;;;19.47;68.32
81033;BME280;70514;52.478;6.102;2023-09-19T04:18:44;100807.59;;;18.99;69.30
81033;BME280;70514;52.478;6.102;2023-09-19T04:21:13;100815.88;;;19.15;68.70
81033;BME280;70514;52.478;6.102;2023-09-19T04:23:42;100816.78;;;19.14;68.82
81033;BME280;70514;52.478;6.102;2023-09-19T04:26:12;100829.81;;;19.14;69.64
81033;BME280;70514;52.478;6.102;2023-09-19T04:28:41;100835.41;;;19.00;70.37
81033;BME280;70514;52.478;6.102;2023-09-19T04:31:13;100842.25;;;19.05;69.43
81033;BME280;70514;52.478;6.102;2023-09-19T04:33:43;100831.69;;;19.41;68.56
81033;BME280;70514;52.478;6.102;2023-09-19T04:36:12;100834.69;;;18.95;69.58
81033;BME280;70514;52.478;6.102;2023-09-19T04:39:03;100836.91;;;19.08;69.26
81033;BME280;70514;52.478;6.102;2023-09-19T04:41:36;100836.13;;;19.06;68.63
81033;BME280;70514;52.478;6.102;2023-09-19T04:44:07;100840.94;;;19.22;68.91
81033;BME280;70514;52.478;6.102;2023-09-19T04:46:36;100852.13;;;19.25;68.37
81033;BME280;70514;52.478;6.102;2023-09-19T04:49:06;100850.44;;;19.24;68.01
81033;BME280;70514;52.478;6.102;2023-09-19T04:51:35;100852.25;;;19.22;67.72
81033;BME280;70514;52.478;6.102;2023-09-19T04:54:06;100857.34;;;19.27;68.41
81033;BME280;70514;52.478;6.102;2023-09-19T04:56:35;100850.97;;;19.04;69.12
81033;BME280;70514;52.478;6.102;2023-09-19T04:59:04;100858.69;;;19.07;67.98
81033;BME280;70514;52.478;6.102;2023-09-19T05:01:34;100859.84;;;19.30;68.31
81033;BME280;70514;52.478;6.102;2023-09-19T05:04:04;100854.09;;;18.85;68.99
81033;BME280;70514;52.478;6.102;2023-09-19T05:06:34;100847.41;;;18.73;67.43
81033;BME280;70514;52.478;6.102;2023-09-19T05:09:04;100849.06;;;18.76;68.89
81033;BME280;70514;52.478;6.102;2023-09-19T05:11:34;100853.06;;;18.90;67.67
81033;BME280;70514;52.478;6.102;2023-09-19T05:14:03;100851.22;;;18.94;69.34
81033;BME280;70514;52.478;6.102;2023-09-19T05:16:32;100850.38;;;18.59;69.76
81033;BME280;70514;52.478;6.102;2023-09-19T05:19:02;100854.00;;;18.88;69.85
81033;BME280;70514;52.478;6.102;2023-09-19T05:21:32;100861.66;;;18.94;69.24
81033;BME280;70514;52.478;6.102;2023-09-19T05:24:02;100864.66;;;18.42;69.81
81033;BME280;70514;52.478;6.102;2023-09-19T05:26:32;100856.25;;;18.29;69.36
81033;BME280;70514;52.478;6.102;2023-09-19T05:29:01;100865.25;;;18.90;68.33
81033;BME280;70514;52.478;6.102;2023-09-19T05:31:32;100861.38;;;18.71;67.56
81033;BME280;70514;52.478;6.102;2023-09-19T05:34:01;100863.75;;;18.44;69.57
81033;BME280;70514;52.478;6.102;2023-09-19T05:36:31;100869.22;;;17.94;69.62
81033;BME280;70514;52.478;6.102;2023-09-19T05:39:00;100865.84;;;17.89;69.38
81033;BME280;70514;52.478;6.102;2023-09-19T05:41:29;100854.09;;;18.09;68.00
81033;BME280;70514;52.478;6.102;2023-09-19T05:43:59;100867.91;;;17.73;65.49
81033;BME280;70514;52.478;6.102;2023-09-19T05:46:32;100863.75;;;17.64;71.18
81033;BME280;70514;52.478;6.102;2023-09-19T05:49:01;100878.13;;;18.23;68.91
81033;BME280;70514;52.478;6.102;2023-09-19T05:51:32;100865.81;;;18.67;65.79
81033;BME280;70514;52.478;6.102;2023-09-19T05:54:01;100871.25;;;18.59;67.92
81033;BME280;70514;52.478;6.102;2023-09-19T05:56:30;100865.00;;;18.28;68.05
81033;BME280;70514;52.478;6.102;2023-09-19T05:59:00;100880.00;;;18.17;66.45
81033;BME280;70514;52.478;6.102;2023-09-19T06:01:29;100882.06;;;17.61;68.91
81033;BME280;70514;52.478;6.102;2023-09-19T06:04:01;100900.19;;;18.46;67.76
81033;BME280;70514;52.478;6.102;2023-09-19T06:06:30;100900.41;;;18.37;67.19
81033;BME280;70514;52.478;6.102;2023-09-19T06:08:59;100900.41;;;18.75;68.51
81033;BME280;70514;52.478;6.102;2023-09-19T06:11:28;100907.25;;;18.81;66.11
81033;BME280;70514;52.478;6.102;2023-09-19T06:14:02;100907.88;;;18.90;67.32
81033;BME280;70514;52.478;6.102;2023-09-19T06:16:31;100900.81;;;18.58;67.66
81033;BME280;70514;52.478;6.102;2023-09-19T06:19:04;100897.66;;;18.44;69.38
81033;BME280;70514;52.478;6.102;2023-09-19T06:21:36;100912.03;;;18.22;68.25
81033;BME280;70514;52.478;6.102;2023-09-19T06:24:06;100902.94;;;18.40;69.06
81033;BME280;70514;52.478;6.102;2023-09-19T06:26:35;100910.56;;;18.49;68.94
81033;BME280;70514;52.478;6.102;2023-09-19T06:29:05;100913.03;;;18.56;68.04
81033;BME280;70514;52.478;6.102;2023-09-19T06:31:39;100908.56;;;19.31;66.42
81033;BME280;70514;52.478;6.102;2023-09-19T06:34:08;100914.78;;;19.27;66.62
81033;BME280;70514;52.478;6.102;2023-09-19T06:36:37;100902.84;;;19.17;66.82
81033;BME280;70514;52.478;6.102;2023-09-19T06:39:07;100903.75;;;19.16;66.09
81033;BME280;70514;52.478;6.102;2023-09-19T06:41:39;100892.28;;;19.21;66.73
81033;BME280;70514;52.478;6.102;2023-09-19T06:44:10;100885.22;;;18.55;65.69
81033;BME280;70514;52.478;6.102;2023-09-19T06:46:39;100891.03;;;19.36;65.54
81033;BME280;70514;52.478;6.102;2023-09-19T06:49:10;100884.88;;;19.04;66.94
81033;BME280;70514;52.478;6.102;2023-09-19T06:51:39;100904.69;;;19.47;65.55
81033;BME280;70514;52.478;6.102;2023-09-19T06:54:10;100897.03;;;19.38;65.74
81033;BME280;70514;52.478;6.102;2023-09-19T06:56:40;100898.13;;;19.31;66.34
81033;BME280;70514;52.478;6.102;2023-09-19T06:59:10;100895.94;;;19.14;66.56
81033;BME280;70514;52.478;6.102;2023-09-19T07:01:43;100902.19;;;19.08;66.49
81033;BME280;70514;52.478;6.102;2023-09-19T07:04:13;100897.16;;;19.67;64.86
81033;BME280;70514;52.478;6.102;2023-09-19T07:06:42;100894.34;;;19.08;65.62
81033;BME280;70514;52.478;6.102;2023-09-19T07:09:11;100891.22;;;19.28;65.87
81033;BME280;70514;52.478;6.102;2023-09-19T07:11:41;100901.94;;;19.51;63.88
81033;BME280;70514;52.478;6.102;2023-09-19T07:14:11;100892.94;;;19.63;65.01
81033;BME280;70514;52.478;6.102;2023-09-19T07:16:41;100900.25;;;19.49;64.67
81033;BME280;70514;52.478;6.102;2023-09-19T07:19:13;100907.94;;;19.55;64.08
81033;BME280;70514;52.478;6.102;2023-09-19T07:21:44;100899.72;;;19.69;64.57
81033;BME280;70514;52.478;6.102;2023-09-19T07:24:13;100903.69;;;19.82;64.00
81033;BME280;70514;52.478;6.102;2023-09-19T07:26:42;100919.25;;;19.86;63.20
81033;BME280;70514;52.478;6.102;2023-09-19T07:29:12;100919.75;;;19.99;63.91
81033;BME280;70514;52.478;6.102;2023-09-19T07:31:41;100919.94;;;19.93;63.60
81033;BME280;70514;52.478;6.102;2023-09-19T07:34:11;100927.63;;;19.98;63.37
81033;BME280;70514;52.478;6.102;2023-09-19T07:36:40;100924.91;;;19.71;63.58
81033;BME280;70514;52.478;6.102;2023-09-19T07:39:11;100905.50;;;19.80;64.29
81033;BME280;70514;52.478;6.102;2023-09-19T07:41:51;100911.00;;;19.69;63.49
81033;BME280;70514;52.478;6.102;2023-09-19T07:44:20;100919.53;;;19.76;63.86
81033;BME280;70514;52.478;6.102;2023-09-19T07:46:49;100921.72;;;19.91;63.18
81033;BME280;70514;52.478;6.102;2023-09-19T07:49:20;100920.97;;;19.87;63.38
81033;BME280;70514;52.478;6.102;2023-09-19T07:51:49;100928.97;;;20.11;62.94
81033;BME280;70514;52.478;6.102;2023-09-19T07:54:18;100914.97;;;19.84;62.60
81033;BME280;70514;52.478;6.102;2023-09-19T07:56:48;100912.22;;;19.58;64.44
81033;BME280;70514;52.478;6.102;2023-09-19T07:59:17;100920.88;;;19.90;63.69
81033;BME280;70514;52.478;6.102;2023-09-19T08:01:46;100942.09;;;20.40;62.30
81033;BME280;70514;52.478;6.102;2023-09-19T08:04:16;100938.22;;;20.22;62.44
81033;BME280;70514;52.478;6.102;2023-09-19T08:06:46;100936.38;;;19.97;63.60
81033;BME280;70514;52.478;6.102;2023-09-19T08:09:15;100931.34;;;20.20;62.25
81033;BME280;70514;52.478;6.102;2023-09-19T08:11:53;100940.97;;;20.18;62.71
81033;BME280;70514;52.478;6.102;2023-09-19T08:14:23;100932.47;;;20.11;63.14
81033;BME280;70514;52.478;6.102;2023-09-19T08:16:57;100931.91;;;20.00;63.36
81033;BME280;70514;52.478;6.102;2023-09-19T08:19:26;100932.47;;;20.11;63.19
81033;BME280;70514;52.478;6.102;2023-09-19T08:21:57;100936.38;;;19.97;63.50
81033;BME280;70514;52.478;6.102;2023-09-19T08:24:30;100951.41;;;20.49;61.24
81033;BME280;70514;52.478;6.102;2023-09-19T08:26:59;100948.91;;;20.46;61.91
81033;BME280;70514;52.478;6.102;2023-09-19T08:29:28;100936.81;;;20.69;60.92
81033;BME280;70514;52.478;6.102;2023-09-19T08:31:58;100936.34;;;20.83;60.31
81033;BME280;70514;52.478;6.102;2023-09-19T08:34:28;100940.00;;;20.79;60.31
81033;BME280;70514;52.478;6.102;2023-09-19T08:36:57;100938.75;;;20.91;58.98
81033;BME280;70514;52.478;6.102;2023-09-19T08:39:26;100925.25;;;21.03;59.81
81033;BME280;70514;52.478;6.102;2023-09-19T08:41:59;100924.03;;;20.60;59.93
81033;BME280;70514;52.478;6.102;2023-09-19T08:44:28;100922.66;;;21.03;59.49
81033;BME280;70514;52.478;6.102;2023-09-19T08:47:36;100912.75;;;21.37;59.02
81033;BME280;70514;52.478;6.102;2023-09-19T08:52:46;100918.91;;;21.36;58.20
81033;BME280;70514;52.478;6.102;2023-09-19T08:55:23;100924.84;;;21.41;58.19
81033;BME280;70514;52.478;6.102;2023-09-19T08:58:04;100928.16;;;21.46;58.36
81033;BME280;70514;52.478;6.102;2023-09-19T09:00:36;100926.97;;;21.30;58.32
81033;BME280;70514;52.478;6.102;2023-09-19T09:03:09;100941.84;;;21.54;58.10
81033;BME280;70514;52.478;6.102;2023-09-19T09:05:41;100927.78;;;21.57;57.82
81033;BME280;70514;52.478;6.102;2023-09-19T09:08:13;100928.09;;;21.48;57.72
81033;BME280;70514;52.478;6.102;2023-09-19T09:10:44;100923.59;;;21.51;58.04
81033;BME280;70514;52.478;6.102;2023-09-19T09:13:14;100917.25;;;21.58;57.54
81033;BME280;70514;52.478;6.102;2023-09-19T09:15:44;100915.56;;;21.56;57.42
81033;BME280;70514;52.478;6.102;2023-09-19T09:18:13;100929.31;;;21.62;58.02
81033;BME280;70514;52.478;6.102;2023-09-19T09:20:43;100927.19;;;21.24;57.57
81033;BME280;70514;52.478;6.102;2023-09-19T09:23:13;100917.84;;;21.42;57.41
81033;BME280;70514;52.478;6.102;2023-09-19T09:25:50;100939.28;;;21.28;58.54
81033;BME280;70514;52.478;6.102;2023-09-19T09:28:45;100923.59;;;21.00;59.04
81033;BME280;70514;52.478;6.102;2023-09-19T09:31:24;100915.22;;;21.17;59.24
81033;BME280;70514;52.478;6.102;2023-09-19T09:33:55;100915.91;;;21.47;58.75
81033;BME280;70514;52.478;6.102;2023-09-19T09:36:40;100920.03;;;21.54;58.23
81033;BME280;70514;52.478;6.102;2023-09-19T09:39:10;100923.81;;;21.45;58.14
81033;BME280;70514;52.478;6.102;2023-09-19T09:41:54;100932.94;;;21.83;57.69
81033;BME280;70514;52.478;6.102;2023-09-19T09:44:23;100928.66;;;22.06;56.19
81033;BME280;70514;52.478;6.102;2023-09-19T09:46:52;100930.19;;;22.11;56.50
81033;BME280;70514;52.478;6.102;2023-09-19T09:49:27;100927.34;;;22.17;56.42
81033;BME280;70514;52.478;6.102;2023-09-19T09:52:04;100921.16;;;22.18;55.71
81033;BME280;70514;52.478;6.102;2023-09-19T09:54:58;100924.03;;;22.12;55.96
81033;BME280;70514;52.478;6.102;2023-09-19T09:57:28;100922.00;;;22.19;55.98
81033;BME280;70514;52.478;6.102;2023-09-19T10:00:00;100930.25;;;22.10;56.36
81033;BME280;70514;52.478;6.102;2023-09-19T10:02:42;100933.59;;;22.13;55.95
81033;BME280;70514;52.478;6.102;2023-09-19T10:05:16;100925.50;;;22.19;55.94
81033;BME280;70514;52.478;6.102;2023-09-19T10:08:10;100919.00;;;22.06;56.19
81033;BME280;70514;52.478;6.102;2023-09-19T10:10:42;100923.88;;;21.92;56.96
81033;BME280;70514;52.478;6.102;2023-09-19T10:13:13;100915.84;;;21.73;56.89
81033;BME280;70514;52.478;6.102;2023-09-19T10:15:48;100915.84;;;21.48;56.76
81033;BME280;70514;52.478;6.102;2023-09-19T10:18:25;100902.06;;;21.43;57.67
81033;BME280;70514;52.478;6.102;2023-09-19T10:20:56;100908.78;;;21.26;58.06
81033;BME280;70514;52.478;6.102;2023-09-19T10:23:27;100901.59;;;21.32;58.25
81033;BME280;70514;52.478;6.102;2023-09-19T10:25:59;100908.88;;;21.24;58.67
81033;BME280;70514;52.478;6.102;2023-09-19T10:28:32;100910.59;;;20.97;59.33
81033;BME280;70514;52.478;6.102;2023-09-19T10:31:02;100898.91;;;21.34;58.50
81033;BME280;70514;52.478;6.102;2023-09-19T10:33:35;100903.88;;;21.41;58.09
81033;BME280;70514;52.478;6.102;2023-09-19T10:36:06;100904.13;;;21.58;57.41
81033;BME280;70514;52.478;6.102;2023-09-19T10:38:37;100903.00;;;21.41;58.26
81033;BME280;70514;52.478;6.102;2023-09-19T10:41:10;100898.22;;;21.53;58.08
81033;BME280;70514;52.478;6.102;2023-09-19T10:43:45;100891.47;;;21.46;58.14
81033;BME280;70514;52.478;6.102;2023-09-19T10:46:16;100904.94;;;21.36;58.43
81033;BME280;70514;52.478;6.102;2023-09-19T10:48:46;100899.97;;;21.02;58.36
81033;BME280;70514;52.478;6.102;2023-09-19T10:51:24;100881.69;;;21.00;59.70
81033;BME280;70514;52.478;6.102;2023-09-19T10:53:57;100889.88;;;21.17;58.96
81033;BME280;70514;52.478;6.102;2023-09-19T10:56:37;100891.38;;;21.49;58.40
81033;BME280;70514;52.478;6.102;2023-09-19T10:59:11;100880.38;;;21.63;57.16
81033;BME280;70514;52.478;6.102;2023-09-19T11:07:09;100851.25;;;21.47;57.58
81033;BME280;70514;52.478;6.102;2023-09-19T11:09:50;100852.72;;;21.31;58.25
81033;BME280;70514;52.478;6.102;2023-09-19T11:14:55;100852.06;;;21.49;58.18
81033;BME280;70514;52.478;6.102;2023-09-19T11:17:31;100843.13;;;21.55;57.67
81033;BME280;70514;52.478;6.102;2023-09-19T11:30:39;100845.69;;;21.56;57.60
81033;BME280;70514;52.478;6.102;2023-09-19T11:36:04;100845.75;;;21.30;58.10
81033;BME280;70514;52.478;6.102;2023-09-19T11:46:33;100839.47;;;21.59;57.48
81033;BME280;70514;52.478;6.102;2023-09-19T11:49:07;100832.00;;;21.72;56.60
81033;BME280;70514;52.478;6.102;2023-09-19T11:51:43;100834.25;;;21.59;57.67
81033;BME280;70514;52.478;6.102;2023-09-19T11:54:14;100845.06;;;21.50;57.34
81033;BME280;70514;52.478;6.102;2023-09-19T11:56:59;100825.78;;;21.51;57.87
81033;BME280;70514;52.478;6.102;2023-09-19T11:59:30;100837.44;;;21.44;57.81
81033;BME280;70514;52.478;6.102;2023-09-19T12:02:06;100829.34;;;21.50;57.50
81033;BME280;70514;52.478;6.102;2023-09-19T12:07:10;100834.16;;;21.37;57.52
81033;BME280;70514;52.478;6.102;2023-09-19T12:09:47;100842.69;;;21.19;58.21
81033;BME280;70514;52.478;6.102;2023-09-19T12:12:25;100848.88;;;21.16;59.01
81033;BME280;70514;52.478;6.102;2023-09-19T12:14:57;100826.53;;;21.31;58.51
81033;BME280;70514;52.478;6.102;2023-09-19T12:17:36;100839.53;;;21.57;57.53
81033;BME280;70514;52.478;6.102;2023-09-19T12:20:06;100822.91;;;21.58;57.68
81033;BME280;70514;52.478;6.102;2023-09-19T12:22:46;100824.41;;;21.66;57.58
81033;BME280;70514;52.478;6.102;2023-09-19T12:25:16;100814.78;;;22.11;56.08
81033;BME280;70514;52.478;6.102;2023-09-19T12:27:50;100820.94;;;22.10;55.80
81033;BME280;70514;52.478;6.102;2023-09-19T12:30:27;100821.72;;;22.34;55.07
81033;BME280;70514;52.478;6.102;2023-09-19T12:32:57;100813.41;;;22.23;55.06
81033;BME280;70514;52.478;6.102;2023-09-19T12:37:59;100820.50;;;21.99;55.82
81033;BME280;70514;52.478;6.102;2023-09-19T12:40:29;100818.06;;;21.94;56.26
81033;BME280;70514;52.478;6.102;2023-09-19T12:43:02;100824.13;;;21.72;56.50
81033;BME280;70514;52.478;6.102;2023-09-19T12:45:32;100809.34;;;21.47;57.75
81033;BME280;70514;52.478;6.102;2023-09-19T12:48:26;100799.84;;;21.45;57.70
81033;BME280;70514;52.478;6.102;2023-09-19T12:51:10;100810.59;;;21.37;57.66
81033;BME280;70514;52.478;6.102;2023-09-19T12:53:46;100821.59;;;20.97;59.06
81033;BME280;70514;52.478;6.102;2023-09-19T12:56:19;100819.31;;;21.13;58.53
81033;BME280;70514;52.478;6.102;2023-09-19T13:01:18;100818.44;;;21.12;59.15
81033;BME280;70514;52.478;6.102;2023-09-19T13:04:17;100821.66;;;21.20;58.01
81033;BME280;70514;52.478;6.102;2023-09-19T13:06:50;100814.16;;;21.35;58.25
81033;BME280;70514;52.478;6.102;2023-09-19T13:09:21;100819.16;;;21.17;58.46
81033;BME280;70514;52.478;6.102;2023-09-19T13:11:51;100801.72;;;20.92;59.27
81033;BME280;70514;52.478;6.102;2023-09-19T13:14:25;100813.63;;;21.00;59.38
81033;BME280;70514;52.478;6.102;2023-09-19T13:17:02;100801.34;;;20.77;60.76
81033;BME280;70514;52.478;6.102;2023-09-19T13:19:51;100800.16;;;21.11;59.25
81033;BME280;70514;52.478;6.102;2023-09-19T13:22:42;100807.94;;;21.14;58.15
81033;BME280;70514;52.478;6.102;2023-09-19T13:25:15;100816.00;;;21.08;59.42
81033;BME280;70514;52.478;6.102;2023-09-19T13:27:55;100823.13;;;21.29;58.55
81033;BME280;70514;52.478;6.102;2023-09-19T13:30:26;100807.22;;;21.34;59.05
81033;BME280;70514;52.478;6.102;2023-09-19T13:33:11;100815.31;;;21.51;58.51
81033;BME280;70514;52.478;6.102;2023-09-19T13:35:43;100819.78;;;21.49;57.68
81033;BME280;70514;52.478;6.102;2023-09-19T13:38:12;100812.13;;;21.43;58.32
81033;BME280;70514;52.478;6.102;2023-09-19T13:40:41;100820.34;;;21.34;59.19
81033;BME280;70514;52.478;6.102;2023-09-19T13:43:11;100806.22;;;21.38;58.30
81033;BME280;70514;52.478;6.102;2023-09-19T13:45:41;100811.44;;;21.13;59.01
81033;BME280;70514;52.478;6.102;2023-09-19T13:48:13;100798.53;;;21.08;59.16
81033;BME280;70514;52.478;6.102;2023-09-19T13:50:42;100814.88;;;20.10;63.06
81033;BME280;70514;52.478;6.102;2023-09-19T13:53:12;100811.50;;;20.87;61.15
81033;BME280;70514;52.478;6.102;2023-09-19T13:55:41;100807.28;;;21.07;59.17
81033;BME280;70514;52.478;6.102;2023-09-19T13:58:10;100824.50;;;20.88;60.05
81033;BME280;70514;52.478;6.102;2023-09-19T14:00:40;100814.72;;;21.19;59.47
81033;BME280;70514;52.478;6.102;2023-09-19T14:03:10;100813.03;;;21.42;58.32